LFRD

Dinard-Pleurtuit-Saint-Malo Airport

Dinard/Pleurtuit/Saint-Malo, France
TAF LFRD 182300Z 1900/1924 07010KT CAVOK TEMPO 1910/1913 06015G25KT BECMG 1913/1915 06015G25KT BECMG 1921/1924 07012KT
Issued Valid From Valid To
Nov-18 @ 23:00 UTC
(6 hours ago)
Nov-19 @ 00:00 UTC
(5 hours ago)
Nov-20 @ 00:00 UTC
(in 19 hours)
Nov-19 @ 00:00 to Nov-19 @ 13:00
TAF LFRD 182300Z 1900/1924 07010KT CAVOK
Wind Visibility Clouds Conditions
70° at 10 knots 10,000+ meters
  • No significant clouds
Temporary Nov-19 @ 10:00 to Nov-19 @ 13:00
TEMPO 1910/1913 06015G25KT
Wind
60° at 15 knots
 Gusting to 25 knots
Becoming Nov-19 @ 13:00 to Nov-19 @ 21:00
BECMG 1913/1915 06015G25KT
Wind Visibility Clouds Conditions
60° at 15 knots
 Gusting to 25 knots
10,000+ meters
  • No significant clouds
Becoming Nov-19 @ 21:00 to Nov-20 @ 00:00
BECMG 1921/1924 07012KT
Wind Visibility Clouds Conditions
70° at 12 knots 10,000+ meters
  • No significant clouds
TAF LFRD 182300Z 1900/1924 07010KT CAVOK TEMPO 1910/1913 06015G25KT BECMG 1913/1915 06015G25KT BECMG 1921/1924 07012KT
Issued Nov-18 @ 23:00 UTC
(6 hours ago)
Valid From Nov-19 @ 00:00 UTC
(5 hours ago)
Valid To Nov-20 @ 00:00 UTC
(in 19 hours)
Nov-19 @ 00:00 - Nov-19 @ 13:00
Wind Visibility
70° at 10 knots 10,000+ meters
Clouds
  • No significant clouds
Conditions
Temporary Nov-19 @ 10:00 - Nov-19 @ 13:00
Wind
60° at 15 knots
 Gusting to 25 knots
Becoming Nov-19 @ 13:00 - Nov-19 @ 21:00
Wind Visibility
60° at 15 knots
 Gusting to 25 knots
10,000+ meters
Clouds
  • No significant clouds
Conditions
Becoming Nov-19 @ 21:00 - Nov-20 @ 00:00
Wind Visibility
70° at 12 knots 10,000+ meters
Clouds
  • No significant clouds
Conditions